createdAt,value
2023-03-06T00:01:18.058Z,1.83
2023-03-06T00:03:47.955Z,1.78
2023-03-06T00:06:16.614Z,1.73
2023-03-06T00:08:46.472Z,1.69
2023-03-06T00:11:16.316Z,1.68
2023-03-06T00:13:46.230Z,1.64
2023-03-06T00:16:16.159Z,1.63
2023-03-06T00:18:48.176Z,1.62
2023-03-06T00:21:17.432Z,1.61
2023-03-06T00:23:46.947Z,1.59
2023-03-06T00:26:16.671Z,1.55
2023-03-06T00:28:46.642Z,1.51
2023-03-06T00:31:16.158Z,1.46
2023-03-06T00:33:45.984Z,1.42
2023-03-06T00:36:15.738Z,1.34
2023-03-06T00:38:47.082Z,1.25
2023-03-06T00:41:16.880Z,1.17
2023-03-06T00:43:46.878Z,1.08
2023-03-06T00:46:16.630Z,1.00
2023-03-06T00:48:45.253Z,0.90
2023-03-06T00:51:15.037Z,0.87
2023-03-06T00:53:45.891Z,0.84
2023-03-06T00:56:17.088Z,0.81
2023-03-06T00:58:48.348Z,0.79
2023-03-06T01:01:18.156Z,0.77
2023-03-06T01:03:46.764Z,0.75
2023-03-06T01:06:16.863Z,0.73
2023-03-06T01:08:46.636Z,0.69
2023-03-06T01:11:15.823Z,0.63
2023-03-06T01:13:47.724Z,0.58
2023-03-06T01:16:22.530Z,0.55
2023-03-06T01:18:51.239Z,0.48
2023-03-06T01:21:21.141Z,0.41
2023-03-06T01:23:50.945Z,0.38
2023-03-06T01:26:20.854Z,0.37
2023-03-06T01:28:50.610Z,0.35
2023-03-06T01:31:20.403Z,0.34
2023-03-06T01:33:50.328Z,0.35
2023-03-06T01:36:20.578Z,0.31
2023-03-06T01:38:50.022Z,0.25
2023-03-06T01:41:21.578Z,0.21
2023-03-06T01:43:51.496Z,0.19
2023-03-06T01:46:35.261Z,0.19
2023-03-06T01:49:10.008Z,0.19
2023-03-06T01:52:12.481Z,0.17
2023-03-06T01:54:51.006Z,0.06
2023-03-06T01:57:26.461Z,-0.08
2023-03-06T02:00:15.994Z,-0.10
2023-03-06T02:02:51.610Z,-0.11
2023-03-06T02:05:21.709Z,-0.14
2023-03-06T02:07:52.233Z,-0.15
2023-03-06T02:10:22.329Z,-0.17
2023-03-06T02:12:52.247Z,-0.23
2023-03-06T02:15:25.551Z,-0.30
2023-03-06T02:17:56.792Z,-0.36
2023-03-06T02:20:38.579Z,-0.45
2023-03-06T02:23:27.432Z,-0.49
2023-03-06T02:26:00.112Z,-0.53
2023-03-06T02:28:30.168Z,-0.57
2023-03-06T02:31:00.335Z,-0.58
2023-03-06T02:33:30.390Z,-0.57
2023-03-06T02:36:04.996Z,-0.61
2023-03-06T02:38:45.162Z,-0.63
2023-03-06T02:41:16.225Z,-0.69
2023-03-06T02:43:48.251Z,-0.76
2023-03-06T02:46:17.784Z,-0.82
2023-03-06T02:48:47.750Z,-0.86
2023-03-06T02:51:17.544Z,-0.92
2023-03-06T02:53:46.186Z,-0.97
2023-03-06T02:56:16.689Z,-1.02
2023-03-06T02:58:46.767Z,-1.06
2023-03-06T03:01:16.556Z,-1.08
2023-03-06T03:03:46.840Z,-1.08
2023-03-06T03:06:17.368Z,-1.10
2023-03-06T03:08:47.506Z,-1.17
2023-03-06T03:11:17.327Z,-1.24
2023-03-06T03:13:46.035Z,-1.29
2023-03-06T03:16:20.182Z,-1.34
2023-03-06T03:18:51.499Z,-1.42
2023-03-06T03:21:22.868Z,-1.50
2023-03-06T03:23:52.192Z,-1.56
2023-03-06T03:26:23.183Z,-1.59
2023-03-06T03:29:00.474Z,-1.66
2023-03-06T03:31:30.669Z,-1.74
2023-03-06T03:34:00.775Z,-1.81
2023-03-06T03:36:32.208Z,-1.88
2023-03-06T03:39:03.864Z,-1.92
2023-03-06T03:41:34.481Z,-1.96
2023-03-06T03:44:05.754Z,-1.97
2023-03-06T03:46:36.295Z,-1.98
2023-03-06T03:49:07.145Z,-1.99
2023-03-06T03:51:37.279Z,-2.00
2023-03-06T03:54:07.547Z,-2.03
2023-03-06T03:56:42.769Z,-2.06
2023-03-06T03:59:17.665Z,-2.06
2023-03-06T04:02:00.424Z,-2.07
2023-03-06T04:04:30.521Z,-2.07
2023-03-06T04:07:01.229Z,-2.08
2023-03-06T04:09:32.201Z,-2.08
2023-03-06T04:12:02.502Z,-2.06
2023-03-06T04:14:32.517Z,-2.06
2023-03-06T04:17:03.027Z,-2.09
2023-03-06T04:19:33.513Z,-2.11
2023-03-06T04:22:03.777Z,-2.13
2023-03-06T04:24:33.375Z,-2.17
2023-03-06T04:27:04.808Z,-2.19
2023-03-06T04:29:34.621Z,-2.22
2023-03-06T04:32:05.097Z,-2.25
2023-03-06T04:34:34.159Z,-2.30
2023-03-06T04:37:04.738Z,-2.30
2023-03-06T04:39:34.884Z,-2.29
2023-03-06T04:42:05.166Z,-2.31
2023-03-06T04:44:34.983Z,-2.32
2023-03-06T04:47:05.204Z,-2.33
2023-03-06T04:49:35.369Z,-2.34
2023-03-06T04:52:05.834Z,-2.31
2023-03-06T04:54:35.910Z,-2.30
2023-03-06T04:57:06.027Z,-2.30
2023-03-06T04:59:34.600Z,-2.30
2023-03-06T05:02:04.790Z,-2.29
2023-03-06T05:04:34.613Z,-2.30
2023-03-06T05:07:04.606Z,-2.30
2023-03-06T05:09:36.182Z,-2.29
2023-03-06T05:12:07.438Z,-2.26
2023-03-06T05:14:37.551Z,-2.26
2023-03-06T05:17:06.176Z,-2.29
2023-03-06T05:19:35.885Z,-2.30
2023-03-06T05:22:05.607Z,-2.32
2023-03-06T05:24:35.464Z,-2.34
2023-03-06T05:27:05.593Z,-2.33
2023-03-06T05:29:35.344Z,-2.30
2023-03-06T05:32:05.672Z,-2.26
2023-03-06T05:34:37.576Z,-2.23
2023-03-06T05:37:07.369Z,-2.22
2023-03-06T05:39:37.140Z,-2.14
2023-03-06T05:42:06.977Z,-2.12
2023-03-06T05:44:37.059Z,-2.09
2023-03-06T05:47:06.748Z,-2.05
2023-03-06T05:49:37.167Z,-2.03
2023-03-06T05:52:08.146Z,-2.03
2023-03-06T05:54:38.017Z,-2.03
2023-03-06T05:57:06.684Z,-2.03
2023-03-06T05:59:36.891Z,-2.02
2023-03-06T06:02:06.696Z,-2.01
2023-03-06T06:04:36.436Z,-1.97
2023-03-06T06:07:06.701Z,-1.89
